Emory, Utah
Current Conditions -  °F | °C
As of 2:58 PM on Monday 26 Jan 2015 (Local Time) from KHIF Reporting Station
Clear Clear  
Wind Chill: 46°   Ceiling: Unl
Heat Index: 49°   Visibility: 10mi
Dew Point: 27°   Wind: 8mph
Humidity: 42%   Direction: 330°NNW
Pressure: 30.23"   Gusts: NA
Location:  40.9775°N, 111.442°W
Report Text: KHIF 262158Z AUTO 33007KT 10SM CLR 10/M03 A3023 RMK AO2 SLP229 T00961029
Loading
Personal Weather Stations






























Interactive Weather Map New forecast layout! Learn more

10-Day Weather Forecast

Advertisements
Track Severe Weather on mobile